createdAt,value
2022-10-05T00:00:51.162Z,9.33
2022-10-05T00:05:53.691Z,9.33
2022-10-05T00:10:55.297Z,9.30
2022-10-05T00:16:16.803Z,9.36
2022-10-05T00:21:26.365Z,9.32
2022-10-05T00:26:33.419Z,9.36
2022-10-05T00:31:36.330Z,9.47
2022-10-05T00:36:39.213Z,9.44
2022-10-05T00:41:40.751Z,9.35
2022-10-05T00:46:57.300Z,9.36
2022-10-05T00:52:12.529Z,9.41
2022-10-05T00:57:23.921Z,9.42
2022-10-05T01:02:37.177Z,9.47
2022-10-05T01:07:50.617Z,9.57
2022-10-05T01:12:54.923Z,9.62
2022-10-05T01:18:27.235Z,9.74
2022-10-05T01:23:50.520Z,9.68
2022-10-05T01:29:16.666Z,9.84
2022-10-05T01:34:35.453Z,9.86
2022-10-05T01:39:51.643Z,9.87
2022-10-05T01:44:56.119Z,9.88
2022-10-05T01:50:04.696Z,9.79
2022-10-05T01:55:21.209Z,9.73
2022-10-05T02:00:22.859Z,9.45
2022-10-05T02:05:39.321Z,9.31
2022-10-05T02:11:03.229Z,9.34
2022-10-05T02:16:10.291Z,9.33
2022-10-05T02:21:12.680Z,9.30
2022-10-05T02:26:16.595Z,9.38
2022-10-05T02:31:30.052Z,9.38
2022-10-05T02:36:35.963Z,9.40
2022-10-05T02:41:44.799Z,9.39
2022-10-05T02:47:05.055Z,9.34
2022-10-05T02:52:47.276Z,9.38
2022-10-05T02:58:00.142Z,9.26
2022-10-05T03:03:16.467Z,9.22
2022-10-05T03:08:25.035Z,9.23
2022-10-05T03:13:51.949Z,9.22
2022-10-05T03:19:22.880Z,9.05
2022-10-05T03:24:58.429Z,8.95
2022-10-05T03:30:26.060Z,9.02
2022-10-05T03:35:35.991Z,9.01
2022-10-05T03:40:43.379Z,9.11
2022-10-05T03:46:06.327Z,9.18
2022-10-05T03:51:28.721Z,9.34
2022-10-05T03:56:54.583Z,9.42
2022-10-05T04:02:02.451Z,9.51
2022-10-05T04:07:06.507Z,9.67
2022-10-05T04:12:36.012Z,9.63
2022-10-05T04:17:44.878Z,9.61
2022-10-05T04:22:58.146Z,9.55
2022-10-05T04:28:20.026Z,9.38
2022-10-05T04:33:22.152Z,9.32
2022-10-05T04:38:29.530Z,9.44
2022-10-05T04:43:43.622Z,9.39
2022-10-05T04:48:51.385Z,9.36
2022-10-05T04:54:23.424Z,9.41
2022-10-05T04:59:42.885Z,9.39
2022-10-05T05:05:12.571Z,9.51
2022-10-05T05:10:40.515Z,9.61
2022-10-05T05:15:56.607Z,9.62
2022-10-05T05:21:16.149Z,9.75
2022-10-05T05:26:29.474Z,9.81
2022-10-05T05:32:01.271Z,9.95
2022-10-05T05:37:13.803Z,10.05
2022-10-05T05:42:57.363Z,10.15
2022-10-05T05:48:02.970Z,10.25
2022-10-05T05:53:23.630Z,10.34
2022-10-05T05:58:32.106Z,10.36
2022-10-05T06:04:27.526Z,10.35
2022-10-05T06:09:43.472Z,10.36
2022-10-05T06:14:51.062Z,10.50
2022-10-05T06:20:02.428Z,10.76
2022-10-05T06:25:15.642Z,11.01
2022-10-05T06:30:17.751Z,11.26
2022-10-05T06:35:21.916Z,11.45
2022-10-05T06:40:29.353Z,11.61
2022-10-05T06:45:59.898Z,11.86
2022-10-05T06:51:16.930Z,12.02
2022-10-05T06:56:36.425Z,12.21
2022-10-05T07:02:06.487Z,12.52
2022-10-05T07:07:41.286Z,12.76
2022-10-05T07:13:23.007Z,12.87
2022-10-05T07:18:53.644Z,12.93
2022-10-05T07:24:10.363Z,13.03
2022-10-05T07:29:24.457Z,13.18
2022-10-05T07:34:55.535Z,13.32
2022-10-05T07:40:10.254Z,13.51
2022-10-05T07:45:24.723Z,13.58
2022-10-05T07:50:43.114Z,13.78
2022-10-05T07:55:51.787Z,14.03
2022-10-05T08:01:14.336Z,14.23
2022-10-05T08:06:38.323Z,14.45
2022-10-05T08:12:03.919Z,14.77
2022-10-05T08:17:21.606Z,14.84
2022-10-05T08:22:31.679Z,14.98
2022-10-05T08:27:48.206Z,15.12
2022-10-05T08:33:15.365Z,15.40
2022-10-05T08:38:21.172Z,15.78
2022-10-05T08:43:50.370Z,16.00
2022-10-05T08:49:21.597Z,16.29
2022-10-05T08:54:32.244Z,16.59
2022-10-05T08:59:45.902Z,16.82
2022-10-05T09:05:05.769Z,16.94
2022-10-05T09:10:28.477Z,17.09
2022-10-05T09:15:48.698Z,17.20
2022-10-05T09:20:58.839Z,17.28
2022-10-05T09:26:09.322Z,17.41
2022-10-05T09:31:24.597Z,17.71
2022-10-05T09:36:48.076Z,18.00
2022-10-05T09:42:07.592Z,18.22
2022-10-05T09:47:30.762Z,18.17
2022-10-05T09:52:53.293Z,18.31
2022-10-05T09:58:14.363Z,18.29
2022-10-05T10:03:16.177Z,18.34
2022-10-05T10:08:43.472Z,18.44
2022-10-05T10:13:58.330Z,18.53
2022-10-05T10:19:06.959Z,18.53
2022-10-05T10:24:22.306Z,18.64
2022-10-05T10:29:42.542Z,18.75
2022-10-05T10:34:46.923Z,18.86
2022-10-05T10:40:02.990Z,19.03
2022-10-05T10:45:19.736Z,18.79
2022-10-05T10:50:39.709Z,18.88
2022-10-05T10:55:41.226Z,19.08
2022-10-05T11:00:45.481Z,19.14
2022-10-05T11:06:11.880Z,19.20
2022-10-05T11:11:22.603Z,19.22
2022-10-05T11:16:36.166Z,19.13
2022-10-05T11:21:59.244Z,19.09
2022-10-05T11:27:25.850Z,19.22
2022-10-05T11:32:48.971Z,19.38
2022-10-05T11:38:12.232Z,19.50
2022-10-05T11:43:32.854Z,19.65
2022-10-05T11:48:40.398Z,19.67
2022-10-05T11:54:06.204Z,19.68
2022-10-05T11:59:39.785Z,19.64
2022-10-05T12:05:06.055Z,19.73
2022-10-05T12:10:31.155Z,19.80
2022-10-05T12:15:48.723Z,19.91
2022-10-05T12:21:01.879Z,19.90
2022-10-05T12:26:15.468Z,19.91
2022-10-05T12:31:16.998Z,20.10
2022-10-05T12:36:46.230Z,20.16
2022-10-05T12:41:59.824Z,20.26
2022-10-05T12:47:17.146Z,20.25
2022-10-05T12:52:43.447Z,20.05
2022-10-05T12:57:44.984Z,20.24
2022-10-05T13:03:17.986Z,20.27
2022-10-05T13:08:53.883Z,20.47
2022-10-05T13:14:02.483Z,20.57
2022-10-05T13:19:35.614Z,20.66
2022-10-05T13:25:05.113Z,20.79
2022-10-05T13:30:13.006Z,20.88
2022-10-05T13:35:44.401Z,20.87
2022-10-05T13:40:55.788Z,20.72
2022-10-05T13:46:09.998Z,20.53
2022-10-05T13:51:22.329Z,20.46
2022-10-05T13:56:31.013Z,20.51
2022-10-05T14:01:43.265Z,20.44
2022-10-05T14:06:45.834Z,20.30
2022-10-05T14:12:02.576Z,20.38
2022-10-05T14:17:15.161Z,20.33
2022-10-05T14:22:16.687Z,20.21
2022-10-05T14:27:29.842Z,20.12
2022-10-05T14:32:43.395Z,19.63
2022-10-05T14:37:53.696Z,19.54
2022-10-05T14:42:56.283Z,19.65
2022-10-05T14:48:01.647Z,19.43
2022-10-05T14:53:03.157Z,19.16
2022-10-05T14:58:48.108Z,19.12
2022-10-05T15:04:17.520Z,19.07
2022-10-05T15:09:47.143Z,19.02
2022-10-05T15:15:03.316Z,18.90
2022-10-05T15:20:29.165Z,18.73
2022-10-05T15:25:48.988Z,18.57
2022-10-05T15:30:59.380Z,18.57
2022-10-05T15:36:06.692Z,18.43
2022-10-05T15:41:22.857Z,18.30
2022-10-05T15:46:35.618Z,18.23
2022-10-05T15:51:55.258Z,17.97
2022-10-05T15:57:08.263Z,17.76
2022-10-05T16:02:25.355Z,17.59
2022-10-05T16:07:54.175Z,17.24
2022-10-05T16:13:05.031Z,17.29
2022-10-05T16:18:35.872Z,16.94
2022-10-05T16:24:17.484Z,16.73
2022-10-05T16:30:00.586Z,16.62
2022-10-05T16:35:29.637Z,16.46
2022-10-05T16:40:46.360Z,16.32
2022-10-05T16:45:58.479Z,16.22
2022-10-05T16:51:20.264Z,16.11
2022-10-05T16:56:26.683Z,15.96
2022-10-05T17:01:56.553Z,15.87
2022-10-05T17:07:17.196Z,15.88
2022-10-05T17:12:45.512Z,15.75
2022-10-05T17:17:55.600Z,15.51
2022-10-05T17:23:18.363Z,15.47
2022-10-05T17:28:38.720Z,15.55
2022-10-05T17:33:59.074Z,15.49
2022-10-05T17:39:14.296Z,15.28
2022-10-05T17:44:24.957Z,15.22
2022-10-05T17:50:09.049Z,15.09
2022-10-05T17:55:27.351Z,15.12
2022-10-05T18:00:40.787Z,15.08
2022-10-05T18:05:42.390Z,14.95
2022-10-05T18:11:05.644Z,14.88
2022-10-05T18:16:10.489Z,14.74
2022-10-05T18:21:15.115Z,14.71
2022-10-05T18:26:43.598Z,14.57
2022-10-05T18:31:55.297Z,14.43
2022-10-05T18:37:48.272Z,14.39
2022-10-05T18:43:32.970Z,14.33
2022-10-05T18:49:05.175Z,14.36
2022-10-05T18:54:41.335Z,14.37
2022-10-05T19:00:00.948Z,14.40
2022-10-05T19:05:35.803Z,14.44
2022-10-05T19:10:46.094Z,14.35
2022-10-05T19:16:13.397Z,14.36
2022-10-05T19:21:33.117Z,14.32
2022-10-05T19:26:43.603Z,14.41
2022-10-05T19:32:15.538Z,14.39
2022-10-05T19:37:31.004Z,14.33
2022-10-05T19:42:58.446Z,14.23
2022-10-05T19:48:35.483Z,14.07
2022-10-05T19:53:38.535Z,14.05
2022-10-05T19:58:40.162Z,13.99
2022-10-05T20:03:47.762Z,13.98
2022-10-05T20:08:51.999Z,13.98
2022-10-05T20:13:53.499Z,13.99
2022-10-05T20:19:13.412Z,14.03
2022-10-05T20:24:18.621Z,14.00
2022-10-05T20:29:20.162Z,13.97
2022-10-05T20:34:22.876Z,13.93
2022-10-05T20:39:24.473Z,13.89
2022-10-05T20:44:27.114Z,13.84
2022-10-05T20:49:36.255Z,13.75
2022-10-05T20:54:39.282Z,13.62
2022-10-05T20:59:40.858Z,13.56
2022-10-05T21:04:47.494Z,13.49
2022-10-05T21:09:49.604Z,13.41
2022-10-05T21:14:52.737Z,13.38
2022-10-05T21:19:54.308Z,13.27
2022-10-05T21:24:55.926Z,13.12
2022-10-05T21:29:57.464Z,13.02
2022-10-05T21:34:59.077Z,13.02
2022-10-05T21:40:01.096Z,12.98
2022-10-05T21:45:02.690Z,12.94
2022-10-05T21:50:05.324Z,12.91
2022-10-05T21:55:07.352Z,12.83
2022-10-05T22:00:10.533Z,12.75
2022-10-05T22:05:12.128Z,12.70
2022-10-05T22:10:14.187Z,12.61
2022-10-05T22:15:16.151Z,12.49
2022-10-05T22:20:20.334Z,12.38
2022-10-05T22:25:22.660Z,12.39
2022-10-05T22:30:24.202Z,12.55
2022-10-05T22:35:25.810Z,12.71
2022-10-05T22:40:27.394Z,12.96
2022-10-05T22:45:32.389Z,13.12
2022-10-05T22:50:34.480Z,13.26
2022-10-05T22:55:36.122Z,13.41
2022-10-05T23:00:57.129Z,13.43
2022-10-05T23:06:03.597Z,13.41
2022-10-05T23:11:11.679Z,13.52
2022-10-05T23:16:15.560Z,13.72
2022-10-05T23:21:21.898Z,13.88
2022-10-05T23:26:25.553Z,14.09
2022-10-05T23:31:30.561Z,14.22
2022-10-05T23:36:32.431Z,14.26
2022-10-05T23:41:34.428Z,14.27
2022-10-05T23:46:35.992Z,14.33
2022-10-05T23:51:37.567Z,14.37
2022-10-05T23:56:39.126Z,14.40
